createdAt,value
2018-12-18T00:01:15.724Z,32.53
2018-12-18T00:03:20.037Z,48.53
2018-12-18T00:05:29.601Z,28.97
2018-12-18T00:07:34.170Z,40.37
2018-12-18T00:09:38.537Z,33.30
2018-12-18T00:11:42.867Z,31.10
2018-12-18T00:13:47.180Z,35.53
2018-12-18T00:15:51.493Z,33.90
2018-12-18T00:17:55.903Z,32.47
2018-12-18T00:20:00.287Z,33.00
2018-12-18T00:22:04.965Z,33.47
2018-12-18T00:24:09.131Z,25.10
2018-12-18T00:26:13.499Z,32.73
2018-12-18T00:28:17.809Z,24.67
2018-12-18T00:30:22.111Z,30.10
2018-12-18T00:32:26.324Z,28.30
2018-12-18T00:34:30.725Z,34.17
2018-12-18T00:36:35.038Z,32.43
2018-12-18T00:38:39.268Z,34.63
2018-12-18T00:40:43.657Z,28.13
2018-12-18T00:42:48.101Z,26.47
2018-12-18T00:44:52.492Z,26.50
2018-12-18T00:46:56.894Z,30.93
2018-12-18T00:49:01.156Z,26.40
2018-12-18T00:51:05.264Z,27.70
2018-12-18T00:53:09.767Z,33.23
2018-12-18T00:55:14.050Z,25.43
2018-12-18T00:57:18.302Z,37.47
2018-12-18T00:59:22.738Z,28.40
2018-12-18T01:01:27.027Z,26.03
2018-12-18T01:03:31.208Z,27.67
2018-12-18T01:05:35.629Z,29.63
2018-12-18T01:07:40.057Z,30.20
2018-12-18T01:09:44.520Z,29.30
2018-12-18T01:11:48.911Z,25.10
2018-12-18T01:13:53.126Z,22.47
2018-12-18T01:15:57.328Z,34.30
2018-12-18T01:18:01.539Z,23.97
2018-12-18T01:20:05.970Z,28.20
2018-12-18T01:22:10.389Z,26.93
2018-12-18T01:24:14.624Z,25.07
2018-12-18T01:26:19.111Z,26.33
2018-12-18T01:28:23.337Z,20.67
2018-12-18T01:30:27.558Z,19.80
2018-12-18T01:32:31.862Z,25.43
2018-12-18T01:34:36.121Z,20.70
2018-12-18T01:36:40.432Z,20.53
2018-12-18T01:38:44.904Z,20.63
2018-12-18T01:40:49.527Z,25.00
2018-12-18T01:42:53.638Z,17.67
2018-12-18T01:44:58.008Z,29.60
2018-12-18T01:47:02.382Z,19.33
2018-12-18T01:49:06.801Z,20.00
2018-12-18T01:51:11.295Z,17.00
2018-12-18T01:53:15.701Z,18.80
2018-12-18T01:55:20.040Z,24.53
2018-12-18T01:57:24.253Z,20.40
2018-12-18T01:59:28.424Z,15.93
2018-12-18T02:01:32.753Z,15.70
2018-12-18T02:03:37.543Z,18.23
2018-12-18T02:05:41.840Z,17.60
2018-12-18T02:07:46.036Z,16.53
2018-12-18T02:09:50.218Z,19.37
2018-12-18T02:11:54.548Z,14.87
2018-12-18T02:13:58.770Z,14.80
2018-12-18T02:16:02.977Z,15.33
2018-12-18T02:18:07.291Z,26.93
2018-12-18T02:20:11.614Z,14.03
2018-12-18T02:22:15.818Z,18.30
2018-12-18T02:24:20.138Z,14.37
2018-12-18T02:26:24.618Z,18.03
2018-12-18T02:28:28.957Z,18.33
2018-12-18T02:30:33.542Z,15.40
2018-12-18T02:32:37.892Z,12.90
2018-12-18T02:34:42.115Z,16.90
2018-12-18T02:36:46.547Z,12.87
2018-12-18T02:38:50.848Z,18.37
2018-12-18T02:40:55.160Z,17.97
2018-12-18T02:42:59.454Z,12.30
2018-12-18T02:45:04.240Z,22.10
2018-12-18T02:47:08.429Z,12.27
2018-12-18T02:49:12.565Z,18.43
2018-12-18T02:51:17.201Z,29.03
2018-12-18T02:53:21.471Z,21.90
2018-12-18T02:55:25.642Z,14.73
2018-12-18T02:57:29.873Z,12.03
2018-12-18T02:59:34.076Z,14.90
2018-12-18T03:01:38.518Z,12.60
2018-12-18T03:03:43.232Z,12.73
2018-12-18T03:05:47.433Z,15.87
2018-12-18T03:07:51.536Z,16.30
2018-12-18T03:09:55.943Z,10.73
2018-12-18T03:12:00.600Z,9.73
2018-12-18T03:14:04.872Z,14.97
2018-12-18T03:16:09.204Z,11.27
2018-12-18T03:18:13.317Z,9.53
2018-12-18T03:20:17.545Z,18.20
2018-12-18T03:22:22.207Z,13.70
2018-12-18T03:24:26.483Z,15.20
2018-12-18T03:26:30.583Z,22.97
2018-12-18T03:28:34.796Z,15.00
2018-12-18T03:30:39.017Z,19.73
2018-12-18T03:32:48.985Z,19.23
2018-12-18T03:34:53.261Z,14.07
2018-12-18T03:36:57.592Z,15.10
2018-12-18T03:39:01.899Z,11.40
2018-12-18T03:41:06.230Z,12.53
2018-12-18T03:43:10.820Z,16.87
2018-12-18T03:45:15.225Z,17.17
2018-12-18T03:47:19.598Z,14.87
2018-12-18T03:49:23.881Z,17.43
2018-12-18T03:51:28.407Z,17.47
2018-12-18T03:53:32.617Z,21.90
2018-12-18T03:55:36.827Z,13.50
2018-12-18T03:57:41.132Z,17.20
2018-12-18T03:59:45.582Z,19.27
2018-12-18T04:01:49.884Z,11.30
2018-12-18T04:03:54.204Z,15.90
2018-12-18T04:05:58.543Z,14.67
2018-12-18T04:08:02.918Z,15.93
2018-12-18T04:10:07.558Z,20.63
2018-12-18T04:12:15.947Z,14.73
2018-12-18T04:14:20.278Z,17.33
2018-12-18T04:16:24.675Z,22.50
2018-12-18T04:18:28.964Z,11.30
2018-12-18T04:20:33.325Z,21.30
2018-12-18T04:22:37.721Z,27.87
2018-12-18T04:24:41.936Z,18.53
2018-12-18T04:26:46.439Z,19.00
2018-12-18T04:28:50.782Z,25.60
2018-12-18T04:30:54.885Z,19.30
2018-12-18T04:32:59.071Z,14.87
2018-12-18T04:35:03.431Z,15.30
2018-12-18T04:37:08.119Z,22.27
2018-12-18T04:39:12.511Z,13.70
2018-12-18T04:41:16.864Z,19.63
2018-12-18T04:43:21.367Z,17.83
2018-12-18T04:45:25.790Z,20.50
2018-12-18T04:47:29.963Z,16.77
2018-12-18T04:49:34.326Z,16.07
2018-12-18T04:51:38.761Z,17.63
2018-12-18T04:53:43.172Z,22.50
2018-12-18T04:55:47.397Z,19.83
2018-12-18T04:57:51.753Z,19.77
2018-12-18T04:59:56.130Z,12.27
2018-12-18T05:02:01.558Z,22.20
2018-12-18T05:04:05.871Z,17.63
2018-12-18T05:06:10.125Z,18.20
2018-12-18T05:08:14.480Z,23.40
2018-12-18T05:10:18.831Z,15.57
2018-12-18T05:12:22.993Z,14.43
2018-12-18T05:14:27.145Z,19.77
2018-12-18T05:16:31.441Z,16.47
2018-12-18T05:18:35.768Z,17.00
2018-12-18T05:20:40.145Z,14.53
2018-12-18T05:22:44.590Z,21.77
2018-12-18T05:24:48.891Z,14.97
2018-12-18T05:26:53.088Z,17.33
2018-12-18T05:28:57.371Z,19.93
2018-12-18T05:31:01.904Z,14.90
2018-12-18T05:33:06.156Z,24.67
2018-12-18T05:35:10.486Z,19.40
2018-12-18T05:37:14.903Z,23.90
2018-12-18T05:39:19.068Z,20.43
2018-12-18T05:41:23.429Z,30.10
2018-12-18T05:43:28.602Z,16.13
2018-12-18T05:45:33.645Z,16.30
2018-12-18T05:47:38.436Z,21.37
2018-12-18T05:49:42.839Z,20.00
2018-12-18T05:51:46.963Z,18.30
2018-12-18T05:53:51.135Z,27.20
2018-12-18T05:55:55.588Z,21.33
2018-12-18T05:57:59.894Z,24.50
2018-12-18T06:00:04.339Z,22.47
2018-12-18T06:02:08.724Z,21.93
2018-12-18T06:04:13.000Z,16.80
2018-12-18T06:06:18.603Z,16.30
2018-12-18T06:08:22.921Z,22.57
2018-12-18T06:10:27.499Z,20.93
2018-12-18T06:12:32.509Z,14.80
2018-12-18T06:14:36.964Z,16.87
2018-12-18T06:16:41.153Z,20.27
2018-12-18T06:18:45.510Z,15.07
2018-12-18T06:20:49.581Z,20.03
2018-12-18T06:22:54.124Z,15.67
2018-12-18T06:24:58.404Z,20.93
2018-12-18T06:27:02.859Z,16.30
2018-12-18T06:29:06.971Z,22.10
2018-12-18T06:31:11.359Z,18.37
2018-12-18T06:33:15.763Z,17.97
2018-12-18T06:35:20.432Z,19.60
2018-12-18T06:37:24.604Z,16.53
2018-12-18T06:39:28.881Z,25.07
2018-12-18T06:41:33.161Z,29.47
2018-12-18T06:43:37.591Z,17.50
2018-12-18T06:45:42.102Z,27.50
2018-12-18T06:47:46.173Z,18.13
2018-12-18T06:49:50.441Z,23.53
2018-12-18T06:51:54.711Z,18.70
2018-12-18T06:53:59.004Z,15.67
2018-12-18T06:56:03.288Z,18.80
2018-12-18T06:58:07.655Z,21.70
2018-12-18T07:00:13.068Z,20.30
2018-12-18T07:02:17.499Z,21.57
2018-12-18T07:04:22.981Z,39.93
2018-12-18T07:06:27.306Z,17.33
2018-12-18T07:08:31.516Z,17.53
2018-12-18T07:10:36.957Z,24.50
2018-12-18T07:12:41.280Z,16.60
2018-12-18T07:14:45.495Z,18.20
2018-12-18T07:16:49.689Z,19.60
2018-12-18T07:18:53.907Z,21.23
2018-12-18T07:20:58.107Z,16.20
2018-12-18T07:23:02.430Z,22.27
2018-12-18T07:25:06.754Z,20.37
2018-12-18T07:27:11.023Z,13.30
2018-12-18T07:29:15.385Z,18.23
2018-12-18T07:31:19.587Z,21.30
2018-12-18T07:33:23.799Z,16.30
2018-12-18T07:35:28.101Z,20.67
2018-12-18T07:37:32.425Z,17.97
2018-12-18T07:39:36.733Z,18.23
2018-12-18T07:41:41.005Z,19.27
2018-12-18T07:43:45.347Z,17.90
2018-12-18T07:45:49.875Z,17.77
2018-12-18T07:47:54.218Z,15.93
2018-12-18T07:49:58.613Z,20.43
2018-12-18T07:52:02.837Z,27.77
2018-12-18T07:54:07.125Z,20.83
2018-12-18T07:56:11.563Z,19.13
2018-12-18T07:58:15.885Z,20.93
2018-12-18T08:00:20.201Z,21.97
2018-12-18T08:02:24.823Z,22.80
2018-12-18T08:04:29.146Z,20.50
2018-12-18T08:06:33.346Z,18.90
2018-12-18T08:08:37.648Z,18.23
2018-12-18T08:10:42.267Z,18.43
2018-12-18T08:12:48.017Z,18.60
2018-12-18T08:14:52.307Z,21.33
2018-12-18T08:16:56.676Z,15.20
2018-12-18T08:19:04.058Z,12.67
2018-12-18T08:21:08.347Z,15.70
2018-12-18T08:23:15.341Z,12.97
2018-12-18T08:25:19.746Z,20.67
2018-12-18T08:27:24.023Z,20.90
2018-12-18T08:29:28.409Z,16.20
2018-12-18T08:31:32.560Z,13.23
2018-12-18T08:33:39.252Z,16.43
2018-12-18T08:35:43.462Z,16.53
2018-12-18T08:37:47.760Z,17.63
2018-12-18T08:39:52.131Z,16.43
2018-12-18T08:41:56.529Z,10.20
2018-12-18T08:44:01.144Z,13.40
2018-12-18T08:46:10.230Z,10.60
2018-12-18T08:48:12.171Z,13.73
2018-12-18T08:50:16.620Z,11.33
2018-12-18T08:52:21.071Z,13.23
2018-12-18T08:54:25.403Z,12.33
2018-12-18T08:56:29.650Z,10.77
2018-12-18T08:58:34.023Z,14.27
2018-12-18T09:00:38.215Z,14.53
2018-12-18T09:02:42.541Z,9.20
2018-12-18T09:04:47.172Z,11.63
2018-12-18T09:06:51.462Z,13.77
2018-12-18T09:08:55.606Z,11.20
2018-12-18T09:11:00.024Z,11.33
2018-12-18T09:13:04.188Z,11.30
2018-12-18T09:15:14.023Z,18.47
2018-12-18T09:17:22.405Z,12.93
2018-12-18T09:19:26.671Z,10.90
2018-12-18T09:21:30.955Z,12.87
2018-12-18T09:23:35.369Z,12.03
2018-12-18T09:25:39.846Z,11.57
2018-12-18T09:27:44.456Z,13.63
2018-12-18T09:29:48.819Z,11.53
2018-12-18T09:31:53.383Z,17.87
2018-12-18T09:33:57.609Z,13.23
2018-12-18T09:36:02.325Z,10.03
2018-12-18T09:38:11.709Z,15.03
2018-12-18T09:40:18.275Z,13.97
2018-12-18T09:42:27.713Z,11.33
2018-12-18T09:44:32.194Z,11.83
2018-12-18T09:46:36.646Z,11.87
2018-12-18T09:48:41.011Z,14.60
2018-12-18T09:50:45.322Z,17.20
2018-12-18T09:52:49.623Z,10.87
2018-12-18T09:54:53.875Z,9.60
2018-12-18T09:57:00.892Z,12.43
2018-12-18T09:59:05.302Z,13.93
2018-12-18T10:01:09.843Z,9.97
2018-12-18T10:03:14.062Z,13.20
2018-12-18T10:05:18.466Z,16.33
2018-12-18T10:07:22.870Z,13.90
2018-12-18T10:09:27.230Z,14.03
2018-12-18T10:11:31.541Z,12.73
2018-12-18T10:13:35.806Z,11.33
2018-12-18T10:15:40.048Z,9.90
2018-12-18T10:17:44.610Z,14.60
2018-12-18T10:19:48.798Z,13.20
2018-12-18T10:21:53.194Z,9.37
2018-12-18T10:23:57.631Z,12.27
2018-12-18T10:26:02.128Z,10.33
2018-12-18T10:28:06.487Z,8.47
2018-12-18T10:30:11.074Z,12.07
2018-12-18T10:32:15.511Z,10.47
2018-12-18T10:34:19.697Z,11.10
2018-12-18T10:36:24.141Z,10.43
2018-12-18T10:38:28.814Z,11.00
2018-12-18T10:40:33.539Z,15.60
2018-12-18T10:42:38.079Z,10.00
2018-12-18T10:44:42.612Z,17.00
2018-12-18T10:46:48.379Z,15.50
2018-12-18T10:48:52.519Z,12.20
2018-12-18T10:50:57.322Z,15.27
2018-12-18T10:53:01.507Z,14.13
2018-12-18T10:55:06.376Z,11.70
2018-12-18T10:57:10.838Z,10.37
2018-12-18T10:59:15.084Z,9.73
2018-12-18T11:01:24.466Z,11.37
2018-12-18T11:03:28.708Z,12.37
2018-12-18T11:05:33.391Z,9.97
2018-12-18T11:07:38.059Z,8.30
2018-12-18T11:09:42.297Z,38.57
2018-12-18T11:11:46.601Z,11.03
2018-12-18T11:13:51.069Z,14.20
2018-12-18T11:15:55.412Z,16.43
2018-12-18T11:17:59.740Z,16.60
2018-12-18T11:20:04.167Z,12.53
2018-12-18T11:22:08.431Z,13.93
2018-12-18T11:24:12.769Z,14.93
2018-12-18T11:26:18.022Z,14.93
2018-12-18T11:28:22.208Z,10.73
2018-12-18T11:30:26.536Z,11.60
2018-12-18T11:32:33.071Z,13.53
2018-12-18T11:34:37.288Z,17.23
2018-12-18T11:36:41.936Z,12.53
2018-12-18T11:38:46.285Z,12.43
2018-12-18T11:40:50.376Z,10.83
2018-12-18T11:42:54.825Z,12.60
2018-12-18T11:44:59.326Z,12.10
2018-12-18T11:47:04.857Z,16.40
2018-12-18T11:49:09.279Z,10.83
2018-12-18T11:51:13.886Z,11.77
2018-12-18T11:53:18.242Z,15.57
2018-12-18T11:55:23.025Z,14.33
2018-12-18T11:57:27.558Z,16.10
2018-12-18T11:59:32.183Z,14.73
2018-12-18T12:01:36.585Z,11.10
2018-12-18T12:03:42.118Z,12.23
2018-12-18T12:05:46.386Z,18.57
2018-12-18T12:07:50.668Z,16.53
2018-12-18T12:09:55.082Z,15.10
2018-12-18T12:12:00.793Z,17.87
2018-12-18T12:14:05.186Z,13.50
2018-12-18T12:16:09.552Z,12.47
2018-12-18T12:18:13.760Z,11.70
2018-12-18T12:20:18.091Z,12.70
2018-12-18T12:22:22.544Z,19.60
2018-12-18T12:24:26.818Z,14.27
2018-12-18T12:26:34.579Z,13.57
2018-12-18T12:28:38.888Z,13.13
2018-12-18T12:30:43.241Z,16.37
2018-12-18T12:32:47.583Z,14.07
2018-12-18T12:34:51.740Z,14.10
2018-12-18T12:36:56.211Z,14.40
2018-12-18T12:39:00.562Z,10.70
2018-12-18T12:41:04.792Z,12.00
2018-12-18T12:43:09.219Z,16.03
2018-12-18T12:45:13.510Z,15.60
2018-12-18T12:47:18.248Z,20.37
2018-12-18T12:49:26.741Z,12.20
2018-12-18T12:51:30.924Z,10.67
2018-12-18T12:53:35.205Z,14.40
2018-12-18T12:55:39.626Z,15.63
2018-12-18T12:57:44.012Z,14.33
2018-12-18T12:59:49.111Z,8.50
2018-12-18T13:01:53.296Z,12.57
2018-12-18T13:03:57.687Z,16.37
2018-12-18T13:06:02.096Z,12.40
2018-12-18T13:08:06.561Z,19.33
2018-12-18T13:10:10.871Z,10.57
2018-12-18T13:12:15.135Z,9.70
2018-12-18T13:14:20.185Z,10.27
2018-12-18T13:16:24.688Z,9.67
2018-12-18T13:18:29.137Z,7.30
2018-12-18T13:20:33.363Z,12.93
2018-12-18T13:22:37.901Z,9.33
2018-12-18T13:24:42.281Z,6.47
2018-12-18T13:26:46.470Z,11.00
2018-12-18T13:28:50.848Z,10.90
2018-12-18T13:30:55.029Z,12.27
2018-12-18T13:32:59.345Z,11.67
2018-12-18T13:35:08.833Z,12.10
2018-12-18T13:37:13.134Z,11.50
2018-12-18T13:39:17.404Z,8.40
2018-12-18T13:41:21.613Z,14.83
2018-12-18T13:43:26.395Z,7.43
2018-12-18T13:45:30.737Z,9.70
2018-12-18T13:47:35.131Z,10.53
2018-12-18T13:49:39.373Z,11.03
2018-12-18T13:51:43.786Z,13.27
2018-12-18T13:53:48.076Z,8.37
2018-12-18T13:55:52.488Z,10.30
2018-12-18T13:57:56.792Z,9.57
2018-12-18T14:00:01.114Z,12.63
2018-12-18T14:02:05.565Z,9.73
2018-12-18T14:04:09.666Z,9.57
2018-12-18T14:06:13.879Z,10.87
2018-12-18T14:08:18.173Z,10.63
2018-12-18T14:10:22.406Z,12.13
2018-12-18T14:12:26.836Z,11.67
2018-12-18T14:14:31.148Z,14.93
2018-12-18T14:16:35.520Z,8.30
2018-12-18T14:18:40.140Z,14.93
2018-12-18T14:20:44.507Z,12.60
2018-12-18T14:22:48.904Z,11.20
2018-12-18T14:24:53.024Z,10.53
2018-12-18T14:26:57.234Z,14.90
2018-12-18T14:29:01.443Z,12.40
2018-12-18T14:31:11.918Z,8.80
2018-12-18T14:33:17.082Z,12.80
2018-12-18T14:35:21.664Z,13.70
2018-12-18T14:37:26.227Z,10.27
2018-12-18T14:39:30.394Z,21.63
2018-12-18T14:41:34.690Z,9.63
2018-12-18T14:43:39.818Z,11.07
2018-12-18T14:45:44.065Z,10.97
2018-12-18T14:47:48.246Z,13.70
2018-12-18T14:49:52.731Z,10.70
2018-12-18T14:51:56.973Z,11.30
2018-12-18T14:54:01.243Z,10.97
2018-12-18T14:56:05.739Z,11.53
2018-12-18T14:58:10.076Z,12.63
2018-12-18T15:00:14.386Z,10.83
2018-12-18T15:02:18.903Z,11.90
2018-12-18T15:04:23.503Z,7.80
2018-12-18T15:06:28.002Z,7.87
2018-12-18T15:08:32.342Z,8.27
2018-12-18T15:10:37.851Z,14.33
2018-12-18T15:12:47.144Z,9.30
2018-12-18T15:14:51.549Z,4.30
2018-12-18T15:16:55.803Z,18.20
2018-12-18T15:19:00.153Z,14.17
2018-12-18T15:21:05.081Z,11.83
2018-12-18T15:23:09.384Z,6.60
2018-12-18T15:25:13.698Z,12.33
2018-12-18T15:27:18.050Z,12.67
2018-12-18T15:29:22.570Z,9.80
2018-12-18T15:31:27.200Z,13.40
2018-12-18T15:33:32.117Z,10.33
2018-12-18T15:35:36.732Z,8.57
2018-12-18T15:37:41.164Z,4.90
2018-12-18T15:39:45.581Z,9.43
2018-12-18T15:41:50.354Z,7.40
2018-12-18T15:43:54.721Z,7.53
2018-12-18T15:45:58.908Z,8.10
2018-12-18T15:48:03.184Z,6.93
2018-12-18T15:50:08.707Z,14.33
2018-12-18T15:52:12.813Z,6.57
2018-12-18T15:54:16.948Z,6.57
2018-12-18T15:56:21.308Z,7.47
2018-12-18T15:58:25.727Z,10.10
2018-12-18T16:00:30.042Z,9.53
2018-12-18T16:02:34.454Z,7.17
2018-12-18T16:04:38.863Z,4.73
2018-12-18T16:06:43.197Z,12.60
2018-12-18T16:08:47.395Z,7.27
2018-12-18T16:10:51.560Z,3.83
2018-12-18T16:12:56.021Z,7.30
2018-12-18T16:15:00.526Z,9.53
2018-12-18T16:17:04.957Z,7.33
2018-12-18T16:19:09.421Z,9.87
2018-12-18T16:21:13.563Z,7.93
2018-12-18T16:23:17.695Z,6.50
2018-12-18T16:25:22.103Z,9.93
2018-12-18T16:27:26.839Z,9.83
2018-12-18T16:29:31.263Z,8.30
2018-12-18T16:31:35.369Z,8.00
2018-12-18T16:33:40.197Z,7.53
2018-12-18T16:35:46.341Z,11.90
2018-12-18T16:37:50.980Z,3.77
2018-12-18T16:39:55.576Z,7.37
2018-12-18T16:41:59.710Z,10.20
2018-12-18T16:44:04.323Z,7.10
2018-12-18T16:46:08.734Z,6.60
2018-12-18T16:48:12.869Z,6.97
2018-12-18T16:50:17.162Z,7.20
2018-12-18T16:52:21.564Z,6.43
2018-12-18T16:54:26.555Z,5.63
2018-12-18T16:56:30.975Z,7.90
2018-12-18T16:58:35.359Z,9.23
2018-12-18T17:00:39.541Z,7.50
2018-12-18T17:02:44.999Z,5.43
2018-12-18T17:04:49.447Z,10.33
2018-12-18T17:06:54.025Z,6.03
2018-12-18T17:08:58.291Z,11.87
2018-12-18T17:11:02.649Z,13.13
2018-12-18T17:13:06.996Z,5.67
2018-12-18T17:15:11.114Z,8.80
2018-12-18T17:17:15.695Z,8.07
2018-12-18T17:19:19.903Z,6.23
2018-12-18T17:21:24.266Z,7.47
2018-12-18T17:23:28.533Z,11.93
2018-12-18T17:25:32.787Z,20.67
2018-12-18T17:27:38.218Z,8.83
2018-12-18T17:29:42.533Z,9.87
2018-12-18T17:31:46.909Z,7.50
2018-12-18T17:33:51.547Z,7.20
2018-12-18T17:35:55.899Z,5.60
2018-12-18T17:38:00.426Z,13.77
2018-12-18T17:40:05.143Z,14.03
2018-12-18T17:42:09.506Z,6.10
2018-12-18T17:44:14.268Z,9.87
2018-12-18T17:46:18.841Z,7.83
2018-12-18T17:48:23.408Z,10.70
2018-12-18T17:50:28.028Z,6.00
2018-12-18T17:52:32.634Z,4.07
2018-12-18T17:54:36.952Z,16.40
2018-12-18T17:56:41.254Z,9.70
2018-12-18T17:58:45.566Z,10.27
2018-12-18T18:00:50.135Z,5.10
2018-12-18T18:02:54.538Z,7.37
2018-12-18T18:04:58.764Z,9.90
2018-12-18T18:07:03.050Z,8.53
2018-12-18T18:09:09.310Z,9.27
2018-12-18T18:11:13.803Z,9.73
2018-12-18T18:13:18.047Z,7.27
2018-12-18T18:15:23.679Z,11.80
2018-12-18T18:17:28.128Z,6.30
2018-12-18T18:19:32.409Z,16.23
2018-12-18T18:21:36.881Z,8.67
2018-12-18T18:23:41.275Z,10.00
2018-12-18T18:25:47.366Z,6.40
2018-12-18T18:27:51.753Z,8.10
2018-12-18T18:29:55.957Z,15.73
2018-12-18T18:32:00.571Z,9.30
2018-12-18T18:34:05.218Z,6.97
2018-12-18T18:36:09.911Z,14.00
2018-12-18T18:38:14.711Z,13.20
2018-12-18T18:40:19.246Z,7.40
2018-12-18T18:42:23.361Z,9.17
2018-12-18T18:44:27.682Z,12.83
2018-12-18T18:46:32.068Z,13.50
2018-12-18T18:48:37.408Z,9.50
2018-12-18T18:50:41.562Z,15.63
2018-12-18T18:52:45.771Z,13.90
2018-12-18T18:54:50.279Z,9.77
2018-12-18T18:56:54.627Z,10.37
2018-12-18T18:58:58.910Z,10.83
2018-12-18T19:01:03.329Z,10.77
2018-12-18T19:03:08.081Z,14.70
2018-12-18T19:05:12.772Z,10.23
2018-12-18T19:07:17.303Z,10.80
2018-12-18T19:09:21.691Z,13.00
2018-12-18T19:11:26.306Z,15.47
2018-12-18T19:13:30.794Z,12.20
2018-12-18T19:15:35.155Z,17.60
2018-12-18T19:17:39.272Z,13.50
2018-12-18T19:20:15.505Z,12.30
2018-12-18T19:22:19.688Z,11.20
2018-12-18T19:24:23.897Z,17.33
2018-12-18T19:26:28.080Z,17.90
2018-12-18T19:28:32.407Z,14.37
2018-12-18T19:30:36.618Z,13.47
2018-12-18T19:32:40.983Z,17.10
2018-12-18T19:34:45.232Z,14.53
2018-12-18T19:36:49.706Z,19.97
2018-12-18T19:38:54.179Z,14.13
2018-12-18T19:40:58.556Z,15.20
2018-12-18T19:43:03.089Z,24.30
2018-12-18T19:45:08.264Z,12.97
2018-12-18T19:47:12.736Z,15.00
2018-12-18T19:49:17.233Z,16.23
2018-12-18T19:51:21.862Z,19.50
2018-12-18T19:53:27.303Z,12.83
2018-12-18T19:55:32.813Z,14.20
2018-12-18T19:57:37.613Z,15.17
2018-12-18T19:59:42.143Z,13.70
2018-12-18T20:01:46.728Z,16.93
2018-12-18T20:03:51.176Z,13.43
2018-12-18T20:05:55.800Z,17.03
2018-12-18T20:08:00.213Z,13.53
2018-12-18T20:10:04.754Z,15.57
2018-12-18T20:12:10.055Z,13.43
2018-12-18T20:14:14.341Z,16.50
2018-12-18T20:16:18.830Z,16.43
2018-12-18T20:18:23.036Z,15.83
2018-12-18T20:20:27.535Z,16.77
2018-12-18T20:22:32.141Z,13.13
2018-12-18T20:24:36.502Z,16.47
2018-12-18T20:26:41.184Z,14.97
2018-12-18T20:28:45.347Z,17.63
2018-12-18T20:30:50.082Z,16.43
2018-12-18T20:32:54.961Z,15.47
2018-12-18T20:35:07.602Z,13.37
2018-12-18T20:37:18.076Z,14.10
2018-12-18T20:39:18.787Z,17.33
2018-12-18T20:41:23.284Z,16.67
2018-12-18T20:43:27.586Z,19.63
2018-12-18T20:45:32.358Z,15.60
2018-12-18T20:47:36.992Z,13.47
2018-12-18T20:49:41.268Z,18.23
2018-12-18T20:51:45.796Z,18.57
2018-12-18T20:53:50.039Z,14.20
2018-12-18T20:55:54.596Z,17.90
2018-12-18T20:57:59.019Z,17.00
2018-12-18T21:00:05.629Z,19.23
2018-12-18T21:02:10.300Z,14.20
2018-12-18T21:04:14.532Z,13.20
2018-12-18T21:06:19.150Z,17.30
2018-12-18T21:08:25.845Z,14.90
2018-12-18T21:10:30.235Z,15.40
2018-12-18T21:12:34.549Z,18.90
2018-12-18T21:14:39.128Z,16.23
2018-12-18T21:16:43.630Z,14.53
2018-12-18T21:18:48.107Z,19.13
2018-12-18T21:20:52.499Z,13.67
2018-12-18T21:22:56.863Z,12.87
2018-12-18T21:25:01.140Z,12.63
2018-12-18T21:27:05.557Z,15.00
2018-12-18T21:29:09.713Z,16.13
2018-12-18T21:31:14.467Z,19.83
2018-12-18T21:33:18.984Z,14.20
2018-12-18T21:35:23.703Z,16.30
2018-12-18T21:37:28.094Z,18.60
2018-12-18T21:39:32.477Z,12.03
2018-12-18T21:41:36.772Z,11.80
2018-12-18T21:43:40.906Z,11.30
2018-12-18T21:45:45.118Z,14.80
2018-12-18T21:47:49.602Z,14.73
2018-12-18T21:49:53.770Z,14.47
2018-12-18T21:51:58.118Z,18.47
2018-12-18T21:54:02.514Z,13.83
2018-12-18T21:56:06.951Z,16.07
2018-12-18T21:58:11.414Z,15.60
2018-12-18T22:00:15.683Z,17.77
2018-12-18T22:02:19.917Z,16.97
2018-12-18T22:04:24.348Z,14.70
2018-12-18T22:06:28.567Z,17.50
2018-12-18T22:08:36.830Z,13.50
2018-12-18T22:10:39.353Z,13.67
2018-12-18T22:12:43.835Z,12.67
2018-12-18T22:14:48.069Z,15.30
2018-12-18T22:16:52.503Z,16.30
2018-12-18T22:18:56.921Z,11.10
2018-12-18T22:21:01.331Z,14.60
2018-12-18T22:23:05.703Z,12.50
2018-12-18T22:25:10.056Z,17.47
2018-12-18T22:27:14.364Z,12.87
2018-12-18T22:29:18.646Z,11.90
2018-12-18T22:31:23.007Z,13.87
2018-12-18T22:33:27.392Z,13.57
2018-12-18T22:35:31.960Z,9.80
2018-12-18T22:37:36.768Z,14.57
2018-12-18T22:39:41.170Z,10.37
2018-12-18T22:41:45.513Z,11.00
2018-12-18T22:43:49.874Z,15.17
2018-12-18T22:45:53.992Z,11.33
2018-12-18T22:47:58.335Z,10.17
2018-12-18T22:50:02.739Z,14.63
2018-12-18T22:52:06.884Z,26.27
2018-12-18T22:54:11.037Z,11.70
2018-12-18T22:56:15.478Z,12.10
2018-12-18T22:58:19.819Z,14.13
2018-12-18T23:00:29.344Z,13.07
2018-12-18T23:02:33.601Z,13.83
2018-12-18T23:04:37.952Z,10.03
2018-12-18T23:06:42.777Z,9.87
2018-12-18T23:08:50.255Z,9.83
2018-12-18T23:10:53.854Z,10.00
2018-12-18T23:12:58.326Z,11.87
2018-12-18T23:15:02.524Z,10.63
2018-12-18T23:17:06.738Z,9.70
2018-12-18T23:19:11.150Z,10.10
2018-12-18T23:21:15.464Z,9.33
2018-12-18T23:23:19.555Z,13.40
2018-12-18T23:25:23.913Z,11.30
2018-12-18T23:27:28.318Z,9.40
2018-12-18T23:29:32.821Z,9.57
2018-12-18T23:31:37.148Z,10.10
2018-12-18T23:33:41.369Z,9.70
2018-12-18T23:35:45.675Z,12.77
2018-12-18T23:37:49.893Z,12.73
2018-12-18T23:39:54.372Z,15.50
2018-12-18T23:41:58.875Z,8.10
2018-12-18T23:44:03.243Z,13.20
2018-12-18T23:46:07.518Z,12.53
2018-12-18T23:48:12.241Z,8.53
2018-12-18T23:50:16.587Z,10.13
2018-12-18T23:52:21.263Z,11.70
2018-12-18T23:54:25.687Z,9.23
2018-12-18T23:56:30.151Z,14.43
2018-12-18T23:58:34.358Z,8.53
